This is the latest recevied weather packets stored in our database for station/object W5TUX. If no packets are shown the sender has not sent any weather packets the latest 1 day(s).
| Time | Temp. | Humidity | Pressure | Rain* | Wind** | Luminosity | Snow |
|---|---|---|---|---|---|---|---|
| 1778035337 | 20° C | 74% | 1013 hPa | 0 mm | - | 0 W/m² | - |
| 1778035033 | 20.56° C | 74% | 1013 hPa | 0 mm | - | 0 W/m² | - |
| 1778034731 | 20.56° C | 73% | 1012.5 hPa | 0 mm | - | 0 W/m² | - |
| 1778034427 | 20.56° C | 73% | 1012.4 hPa | 0 mm | - | 0 W/m² | - |
| 1778034125 | 20.56° C | 74% | 1012.2 hPa | 0 mm | - | 0 W/m² | - |
| 1778033823 | 21.11° C | 74% | 1012.3 hPa | 0 mm | - | 0 W/m² | - |
| 1778033520 | 21.11° C | 74% | 1012.1 hPa | 0 mm | - | 0 W/m² | - |
| 1778033217 | 21.11° C | 74% | 1012.2 hPa | 0 mm | - | 0 W/m² | - |
| 1778032612 | 21.11° C | 74% | 1011.8 hPa | 0 mm | - | 0 W/m² | - |
| 1778032309 | 21.11° C | 74% | 1011.9 hPa | 0 mm | - | 0 W/m² | - |
| 1778032006 | 21.67° C | 73% | 1011.4 hPa | 0 mm | - | 0 W/m² | - |
| 1778031702 | 21.67° C | 73% | 1011.6 hPa | 0 mm | - | 0 W/m² | - |
| 1778031400 | 22.22° C | 73% | 1011.8 hPa | 0 mm | - | 0 W/m² | - |
| 1778031097 | 22.78° C | 73% | 1011.5 hPa | 0 mm | - | 0 W/m² | - |
| 1778030793 | 22.78° C | 72% | 1011.7 hPa | 0 mm | - | 0 W/m² | - |
| 1778030490 | 22.78° C | 71% | 1011.3 hPa | 0 mm | - | 0 W/m² | - |
| 1778029883 | 22.78° C | 70% | 1011.4 hPa | 0 mm | - | 1 W/m² | - |
| 1778029279 | 23.33° C | 69% | 1010.7 hPa | 0 mm | - | 2 W/m² | - |
| 1778028976 | 23.33° C | 69% | 1010.5 hPa | 0 mm | - | 3 W/m² | - |
| 1778028369 | 23.33° C | 69% | 1010.7 hPa | 0 mm | - | 2 W/m² | - |
| 1778028066 | 23.33° C | 69% | 1010.9 hPa | 0 mm | - | 4 W/m² | - |
| 1778026547 | 24.44° C | 67% | 1010.7 hPa | 0 mm | - | 14 W/m² | - |
| 1778025942 | 25° C | 66% | 1010.5 hPa | 0 mm | - | 29 W/m² | - |
| 1778023520 | 27.22° C | 61% | 1010.1 hPa | 0 mm | - | 35 W/m² | - |
| 1778022310 | 28.89° C | 52% | 1009.4 hPa | 0 mm | - | 55 W/m² | - |
* Rain latest hour (hover to see other rain measurements)
** Current wind speed in m/s (hover to see current wind gust speed)